sensor_id;sensor_type;location;lat;lon;timestamp;P1;durP1;ratioP1;P2;durP2;ratioP2
56297;SDS011;42208;6.376;-10.782;2023-08-07T00:00:29;21.55;;;8.57;;
56297;SDS011;42208;6.376;-10.782;2023-08-07T00:02:57;15.65;;;9.63;;
56297;SDS011;42208;6.376;-10.782;2023-08-07T00:05:26;24.25;;;9.57;;
56297;SDS011;42208;6.376;-10.782;2023-08-07T00:07:54;22.08;;;10.45;;
56297;SDS011;42208;6.376;-10.782;2023-08-07T00:10:23;24.23;;;10.10;;
56297;SDS011;42208;6.376;-10.782;2023-08-07T00:12:51;24.23;;;9.93;;
56297;SDS011;42208;6.376;-10.782;2023-08-07T00:15:22;24.73;;;10.73;;
56297;SDS011;42208;6.376;-10.782;2023-08-07T00:17:50;19.55;;;10.30;;
56297;SDS011;42208;6.376;-10.782;2023-08-07T00:20:19;17.88;;;10.07;;
56297;SDS011;42208;6.376;-10.782;2023-08-07T00:22:48;21.65;;;10.13;;
56297;SDS011;42208;6.376;-10.782;2023-08-07T00:25:16;23.05;;;11.27;;
56297;SDS011;42208;6.376;-10.782;2023-08-07T00:27:45;26.10;;;12.43;;
56297;SDS011;42208;6.376;-10.782;2023-08-07T00:30:13;31.42;;;14.43;;
56297;SDS011;42208;6.376;-10.782;2023-08-07T00:32:42;20.42;;;8.82;;
56297;SDS011;42208;6.376;-10.782;2023-08-07T00:35:11;17.35;;;8.30;;
56297;SDS011;42208;6.376;-10.782;2023-08-07T00:37:39;19.48;;;8.65;;
56297;SDS011;42208;6.376;-10.782;2023-08-07T00:40:08;12.05;;;6.20;;
56297;SDS011;42208;6.376;-10.782;2023-08-07T00:42:37;10.77;;;4.75;;
56297;SDS011;42208;6.376;-10.782;2023-08-07T00:45:06;15.85;;;5.60;;
56297;SDS011;42208;6.376;-10.782;2023-08-07T00:47:34;15.60;;;6.03;;
56297;SDS011;42208;6.376;-10.782;2023-08-07T00:50:03;14.00;;;5.65;;
56297;SDS011;42208;6.376;-10.782;2023-08-07T00:52:32;18.40;;;5.55;;
56297;SDS011;42208;6.376;-10.782;2023-08-07T00:55:01;15.15;;;5.18;;
56297;SDS011;42208;6.376;-10.782;2023-08-07T00:57:29;14.90;;;6.40;;
56297;SDS011;42208;6.376;-10.782;2023-08-07T00:59:59;13.57;;;4.90;;
56297;SDS011;42208;6.376;-10.782;2023-08-07T01:02:28;13.15;;;4.63;;
56297;SDS011;42208;6.376;-10.782;2023-08-07T01:04:57;12.48;;;5.13;;
56297;SDS011;42208;6.376;-10.782;2023-08-07T01:07:25;13.60;;;5.07;;
56297;SDS011;42208;6.376;-10.782;2023-08-07T01:09:53;13.38;;;5.07;;
56297;SDS011;42208;6.376;-10.782;2023-08-07T01:12:24;15.93;;;4.68;;
56297;SDS011;42208;6.376;-10.782;2023-08-07T01:17:46;12.43;;;5.43;;
56297;SDS011;42208;6.376;-10.782;2023-08-07T01:20:17;14.57;;;4.63;;
56297;SDS011;42208;6.376;-10.782;2023-08-07T01:22:46;11.00;;;4.50;;
56297;SDS011;42208;6.376;-10.782;2023-08-07T01:25:14;10.35;;;4.32;;
56297;SDS011;42208;6.376;-10.782;2023-08-07T01:27:45;9.68;;;5.40;;
56297;SDS011;42208;6.376;-10.782;2023-08-07T01:30:29;11.27;;;4.47;;
56297;SDS011;42208;6.376;-10.782;2023-08-07T01:38:58;13.95;;;5.43;;
56297;SDS011;42208;6.376;-10.782;2023-08-07T01:41:29;7.75;;;4.40;;
56297;SDS011;42208;6.376;-10.782;2023-08-07T01:43:58;7.05;;;3.85;;
56297;SDS011;42208;6.376;-10.782;2023-08-07T01:46:28;10.05;;;3.83;;
56297;SDS011;42208;6.376;-10.782;2023-08-07T01:48:57;10.25;;;4.30;;
56297;SDS011;42208;6.376;-10.782;2023-08-07T01:51:25;7.25;;;3.58;;
56297;SDS011;42208;6.376;-10.782;2023-08-07T01:53:54;7.85;;;3.40;;
56297;SDS011;42208;6.376;-10.782;2023-08-07T01:56:22;7.05;;;3.30;;
56297;SDS011;42208;6.376;-10.782;2023-08-07T01:58:50;4.68;;;2.45;;
56297;SDS011;42208;6.376;-10.782;2023-08-07T02:01:19;5.65;;;2.40;;
56297;SDS011;42208;6.376;-10.782;2023-08-07T02:03:48;6.95;;;3.25;;
56297;SDS011;42208;6.376;-10.782;2023-08-07T02:06:16;8.23;;;3.50;;
56297;SDS011;42208;6.376;-10.782;2023-08-07T02:08:44;8.65;;;4.10;;
56297;SDS011;42208;6.376;-10.782;2023-08-07T02:11:13;6.97;;;4.03;;
56297;SDS011;42208;6.376;-10.782;2023-08-07T02:13:41;7.53;;;3.88;;
56297;SDS011;42208;6.376;-10.782;2023-08-07T02:16:10;7.15;;;3.42;;
56297;SDS011;42208;6.376;-10.782;2023-08-07T02:18:38;7.18;;;3.40;;
56297;SDS011;42208;6.376;-10.782;2023-08-07T02:21:06;7.70;;;4.10;;
56297;SDS011;42208;6.376;-10.782;2023-08-07T02:23:35;8.70;;;3.53;;
56297;SDS011;42208;6.376;-10.782;2023-08-07T02:26:03;7.93;;;3.63;;
56297;SDS011;42208;6.376;-10.782;2023-08-07T02:28:32;7.10;;;3.30;;
56297;SDS011;42208;6.376;-10.782;2023-08-07T02:31:00;9.25;;;3.83;;
56297;SDS011;42208;6.376;-10.782;2023-08-07T02:33:29;6.50;;;3.90;;
56297;SDS011;42208;6.376;-10.782;2023-08-07T02:35:58;8.00;;;3.85;;
56297;SDS011;42208;6.376;-10.782;2023-08-07T02:38:27;9.57;;;4.55;;
56297;SDS011;42208;6.376;-10.782;2023-08-07T02:40:55;10.63;;;4.00;;
56297;SDS011;42208;6.376;-10.782;2023-08-07T02:43:24;6.95;;;3.33;;
56297;SDS011;42208;6.376;-10.782;2023-08-07T02:45:52;9.45;;;3.78;;
56297;SDS011;42208;6.376;-10.782;2023-08-07T02:48:20;6.65;;;3.03;;
56297;SDS011;42208;6.376;-10.782;2023-08-07T02:50:49;6.90;;;3.47;;
56297;SDS011;42208;6.376;-10.782;2023-08-07T02:53:17;9.07;;;3.55;;
56297;SDS011;42208;6.376;-10.782;2023-08-07T02:55:46;7.22;;;3.45;;
56297;SDS011;42208;6.376;-10.782;2023-08-07T02:58:14;8.15;;;3.25;;
56297;SDS011;42208;6.376;-10.782;2023-08-07T03:00:43;5.93;;;3.08;;
56297;SDS011;42208;6.376;-10.782;2023-08-07T03:03:11;8.50;;;3.30;;
56297;SDS011;42208;6.376;-10.782;2023-08-07T03:05:47;8.18;;;3.80;;
56297;SDS011;42208;6.376;-10.782;2023-08-07T03:08:17;9.45;;;4.70;;
56297;SDS011;42208;6.376;-10.782;2023-08-07T03:10:55;8.40;;;4.97;;
56297;SDS011;42208;6.376;-10.782;2023-08-07T03:13:25;14.07;;;6.40;;
56297;SDS011;42208;6.376;-10.782;2023-08-07T03:16:00;23.88;;;5.68;;
56297;SDS011;42208;6.376;-10.782;2023-08-07T03:18:33;8.88;;;5.15;;
56297;SDS011;42208;6.376;-10.782;2023-08-07T03:21:02;12.13;;;5.57;;
56297;SDS011;42208;6.376;-10.782;2023-08-07T03:23:30;12.73;;;5.38;;
56297;SDS011;42208;6.376;-10.782;2023-08-07T03:26:06;17.60;;;6.70;;
56297;SDS011;42208;6.376;-10.782;2023-08-07T03:28:39;18.25;;;6.22;;
56297;SDS011;42208;6.376;-10.782;2023-08-07T03:31:08;11.02;;;6.78;;
56297;SDS011;42208;6.376;-10.782;2023-08-07T03:33:36;14.75;;;7.18;;
56297;SDS011;42208;6.376;-10.782;2023-08-07T03:36:05;16.48;;;7.93;;
56297;SDS011;42208;6.376;-10.782;2023-08-07T03:38:33;16.83;;;7.80;;
56297;SDS011;42208;6.376;-10.782;2023-08-07T03:41:02;19.83;;;7.45;;
56297;SDS011;42208;6.376;-10.782;2023-08-07T03:43:32;19.33;;;8.63;;
56297;SDS011;42208;6.376;-10.782;2023-08-07T03:46:00;14.10;;;7.63;;
56297;SDS011;42208;6.376;-10.782;2023-08-07T03:48:30;18.13;;;9.20;;
56297;SDS011;42208;6.376;-10.782;2023-08-07T03:51:04;13.73;;;8.55;;
56297;SDS011;42208;6.376;-10.782;2023-08-07T03:53:40;20.58;;;8.65;;
56297;SDS011;42208;6.376;-10.782;2023-08-07T03:56:08;20.05;;;8.73;;
56297;SDS011;42208;6.376;-10.782;2023-08-07T03:58:37;18.98;;;9.48;;
56297;SDS011;42208;6.376;-10.782;2023-08-07T04:01:06;21.17;;;11.00;;
56297;SDS011;42208;6.376;-10.782;2023-08-07T04:03:34;24.00;;;12.55;;
56297;SDS011;42208;6.376;-10.782;2023-08-07T04:06:03;25.23;;;11.88;;
56297;SDS011;42208;6.376;-10.782;2023-08-07T04:08:31;22.38;;;10.77;;
56297;SDS011;42208;6.376;-10.782;2023-08-07T04:11:04;18.75;;;10.68;;
56297;SDS011;42208;6.376;-10.782;2023-08-07T04:13:34;21.55;;;10.57;;
56297;SDS011;42208;6.376;-10.782;2023-08-07T04:16:02;15.50;;;9.57;;
56297;SDS011;42208;6.376;-10.782;2023-08-07T04:18:32;20.08;;;8.98;;
56297;SDS011;42208;6.376;-10.782;2023-08-07T04:21:01;23.80;;;8.63;;
56297;SDS011;42208;6.376;-10.782;2023-08-07T04:23:31;16.33;;;8.65;;
56297;SDS011;42208;6.376;-10.782;2023-08-07T04:25:59;14.70;;;8.10;;
56297;SDS011;42208;6.376;-10.782;2023-08-07T04:28:28;25.20;;;8.93;;
56297;SDS011;42208;6.376;-10.782;2023-08-07T04:30:56;15.35;;;8.85;;
56297;SDS011;42208;6.376;-10.782;2023-08-07T04:33:25;11.82;;;7.53;;
56297;SDS011;42208;6.376;-10.782;2023-08-07T04:35:53;18.80;;;8.30;;
56297;SDS011;42208;6.376;-10.782;2023-08-07T04:38:22;14.98;;;7.65;;
56297;SDS011;42208;6.376;-10.782;2023-08-07T04:40:50;13.73;;;7.43;;
56297;SDS011;42208;6.376;-10.782;2023-08-07T04:43:19;13.45;;;8.00;;
56297;SDS011;42208;6.376;-10.782;2023-08-07T04:45:48;16.17;;;7.35;;
56297;SDS011;42208;6.376;-10.782;2023-08-07T04:48:16;16.95;;;8.05;;
56297;SDS011;42208;6.376;-10.782;2023-08-07T04:50:45;11.25;;;6.80;;
56297;SDS011;42208;6.376;-10.782;2023-08-07T04:53:14;13.02;;;7.10;;
56297;SDS011;42208;6.376;-10.782;2023-08-07T04:55:42;14.30;;;6.65;;
56297;SDS011;42208;6.376;-10.782;2023-08-07T04:58:11;55.22;;;8.88;;
56297;SDS011;42208;6.376;-10.782;2023-08-07T05:00:39;17.77;;;6.47;;
56297;SDS011;42208;6.376;-10.782;2023-08-07T05:03:08;13.98;;;6.45;;
56297;SDS011;42208;6.376;-10.782;2023-08-07T05:05:37;10.77;;;5.35;;
56297;SDS011;42208;6.376;-10.782;2023-08-07T05:08:05;13.73;;;5.28;;
56297;SDS011;42208;6.376;-10.782;2023-08-07T05:10:34;11.30;;;5.70;;
56297;SDS011;42208;6.376;-10.782;2023-08-07T05:13:02;16.98;;;7.88;;
56297;SDS011;42208;6.376;-10.782;2023-08-07T05:15:33;12.65;;;6.95;;
56297;SDS011;42208;6.376;-10.782;2023-08-07T05:18:01;12.27;;;7.20;;
56297;SDS011;42208;6.376;-10.782;2023-08-07T05:20:29;12.30;;;7.00;;
56297;SDS011;42208;6.376;-10.782;2023-08-07T05:22:58;11.63;;;7.25;;
56297;SDS011;42208;6.376;-10.782;2023-08-07T05:25:27;13.45;;;7.30;;
56297;SDS011;42208;6.376;-10.782;2023-08-07T05:27:55;14.15;;;8.13;;
56297;SDS011;42208;6.376;-10.782;2023-08-07T05:30:24;13.65;;;8.45;;
56297;SDS011;42208;6.376;-10.782;2023-08-07T05:32:53;32.35;;;16.13;;
56297;SDS011;42208;6.376;-10.782;2023-08-07T05:35:21;18.00;;;10.52;;
56297;SDS011;42208;6.376;-10.782;2023-08-07T05:37:50;11.73;;;6.63;;
56297;SDS011;42208;6.376;-10.782;2023-08-07T05:40:18;11.20;;;5.38;;
56297;SDS011;42208;6.376;-10.782;2023-08-07T05:42:47;6.13;;;4.45;;
56297;SDS011;42208;6.376;-10.782;2023-08-07T05:45:16;63.92;;;51.25;;
56297;SDS011;42208;6.376;-10.782;2023-08-07T05:47:44;130.13;;;113.53;;
56297;SDS011;42208;6.376;-10.782;2023-08-07T05:50:13;90.78;;;73.78;;
56297;SDS011;42208;6.376;-10.782;2023-08-07T05:52:41;63.45;;;49.50;;
56297;SDS011;42208;6.376;-10.782;2023-08-07T05:55:10;32.60;;;21.35;;
56297;SDS011;42208;6.376;-10.782;2023-08-07T05:57:39;18.58;;;9.65;;
56297;SDS011;42208;6.376;-10.782;2023-08-07T06:00:08;22.85;;;8.07;;
56297;SDS011;42208;6.376;-10.782;2023-08-07T06:02:40;15.40;;;6.40;;
56297;SDS011;42208;6.376;-10.782;2023-08-07T06:05:08;16.15;;;5.50;;
56297;SDS011;42208;6.376;-10.782;2023-08-07T06:07:37;8.02;;;4.68;;
56297;SDS011;42208;6.376;-10.782;2023-08-07T06:10:05;7.38;;;4.68;;
56297;SDS011;42208;6.376;-10.782;2023-08-07T06:12:34;14.65;;;6.30;;
56297;SDS011;42208;6.376;-10.782;2023-08-07T06:15:03;9.63;;;5.20;;
56297;SDS011;42208;6.376;-10.782;2023-08-07T06:17:32;8.25;;;4.78;;
56297;SDS011;42208;6.376;-10.782;2023-08-07T06:20:00;7.05;;;4.60;;
56297;SDS011;42208;6.376;-10.782;2023-08-07T06:22:28;10.13;;;5.60;;
56297;SDS011;42208;6.376;-10.782;2023-08-07T06:24:57;10.32;;;6.60;;
56297;SDS011;42208;6.376;-10.782;2023-08-07T06:27:25;15.68;;;9.68;;
56297;SDS011;42208;6.376;-10.782;2023-08-07T06:29:53;16.67;;;10.10;;
56297;SDS011;42208;6.376;-10.782;2023-08-07T06:32:22;14.02;;;9.50;;
56297;SDS011;42208;6.376;-10.782;2023-08-07T06:34:50;16.20;;;8.10;;
56297;SDS011;42208;6.376;-10.782;2023-08-07T06:37:19;13.88;;;7.90;;
56297;SDS011;42208;6.376;-10.782;2023-08-07T06:39:47;9.52;;;6.55;;
56297;SDS011;42208;6.376;-10.782;2023-08-07T06:42:16;11.38;;;5.43;;
56297;SDS011;42208;6.376;-10.782;2023-08-07T06:44:46;10.25;;;5.78;;
56297;SDS011;42208;6.376;-10.782;2023-08-07T06:47:15;8.93;;;5.82;;
56297;SDS011;42208;6.376;-10.782;2023-08-07T06:49:43;12.60;;;5.90;;
56297;SDS011;42208;6.376;-10.782;2023-08-07T06:52:11;9.88;;;6.32;;
56297;SDS011;42208;6.376;-10.782;2023-08-07T06:54:40;8.95;;;6.10;;
56297;SDS011;42208;6.376;-10.782;2023-08-07T06:57:08;12.95;;;7.70;;
56297;SDS011;42208;6.376;-10.782;2023-08-07T06:59:37;13.30;;;6.88;;
56297;SDS011;42208;6.376;-10.782;2023-08-07T07:02:05;16.42;;;8.43;;
56297;SDS011;42208;6.376;-10.782;2023-08-07T07:04:34;12.23;;;8.15;;
56297;SDS011;42208;6.376;-10.782;2023-08-07T07:07:02;14.88;;;10.10;;
56297;SDS011;42208;6.376;-10.782;2023-08-07T07:09:31;14.57;;;10.77;;
56297;SDS011;42208;6.376;-10.782;2023-08-07T07:11:59;17.25;;;9.88;;
56297;SDS011;42208;6.376;-10.782;2023-08-07T07:14:28;19.13;;;9.90;;
56297;SDS011;42208;6.376;-10.782;2023-08-07T07:16:56;13.57;;;8.82;;
56297;SDS011;42208;6.376;-10.782;2023-08-07T07:19:25;11.75;;;7.78;;
56297;SDS011;42208;6.376;-10.782;2023-08-07T07:21:53;16.20;;;6.97;;
56297;SDS011;42208;6.376;-10.782;2023-08-07T07:24:23;8.50;;;6.95;;
56297;SDS011;42208;6.376;-10.782;2023-08-07T07:26:51;12.48;;;7.82;;
56297;SDS011;42208;6.376;-10.782;2023-08-07T07:29:20;12.00;;;7.47;;
56297;SDS011;42208;6.376;-10.782;2023-08-07T07:31:49;15.13;;;8.15;;
56297;SDS011;42208;6.376;-10.782;2023-08-07T07:34:19;13.10;;;8.15;;
56297;SDS011;42208;6.376;-10.782;2023-08-07T07:36:48;19.27;;;9.38;;
56297;SDS011;42208;6.376;-10.782;2023-08-07T07:39:16;15.90;;;8.80;;
56297;SDS011;42208;6.376;-10.782;2023-08-07T07:41:50;14.05;;;10.23;;
56297;SDS011;42208;6.376;-10.782;2023-08-07T07:44:18;21.05;;;10.85;;
56297;SDS011;42208;6.376;-10.782;2023-08-07T07:46:46;15.15;;;10.05;;
56297;SDS011;42208;6.376;-10.782;2023-08-07T07:49:15;12.18;;;7.60;;
56297;SDS011;42208;6.376;-10.782;2023-08-07T07:51:43;14.90;;;11.07;;
56297;SDS011;42208;6.376;-10.782;2023-08-07T07:54:12;19.58;;;13.45;;
56297;SDS011;42208;6.376;-10.782;2023-08-07T07:56:44;19.83;;;13.43;;
56297;SDS011;42208;6.376;-10.782;2023-08-07T07:59:13;18.08;;;13.10;;
56297;SDS011;42208;6.376;-10.782;2023-08-07T08:01:41;17.90;;;11.80;;
56297;SDS011;42208;6.376;-10.782;2023-08-07T08:04:10;17.88;;;9.98;;
56297;SDS011;42208;6.376;-10.782;2023-08-07T08:06:39;22.10;;;11.70;;
56297;SDS011;42208;6.376;-10.782;2023-08-07T08:09:08;13.65;;;9.68;;
56297;SDS011;42208;6.376;-10.782;2023-08-07T08:11:36;17.20;;;9.27;;
56297;SDS011;42208;6.376;-10.782;2023-08-07T08:16:52;16.98;;;10.23;;
56297;SDS011;42208;6.376;-10.782;2023-08-07T08:19:22;19.10;;;10.32;;
56297;SDS011;42208;6.376;-10.782;2023-08-07T08:21:57;18.60;;;10.80;;
56297;SDS011;42208;6.376;-10.782;2023-08-07T08:24:27;20.70;;;12.05;;
56297;SDS011;42208;6.376;-10.782;2023-08-07T08:26:56;21.73;;;12.50;;
56297;SDS011;42208;6.376;-10.782;2023-08-07T08:29:34;18.80;;;12.88;;
56297;SDS011;42208;6.376;-10.782;2023-08-07T08:32:03;23.80;;;13.25;;
56297;SDS011;42208;6.376;-10.782;2023-08-07T08:34:38;18.08;;;13.13;;
56297;SDS011;42208;6.376;-10.782;2023-08-07T08:37:09;23.35;;;14.98;;
56297;SDS011;42208;6.376;-10.782;2023-08-07T08:39:40;28.17;;;17.42;;
56297;SDS011;42208;6.376;-10.782;2023-08-07T08:42:10;28.38;;;16.48;;
56297;SDS011;42208;6.376;-10.782;2023-08-07T08:44:53;24.52;;;15.40;;
56297;SDS011;42208;6.376;-10.782;2023-08-07T08:47:24;24.65;;;14.63;;
56297;SDS011;42208;6.376;-10.782;2023-08-07T08:49:56;27.70;;;14.00;;
56297;SDS011;42208;6.376;-10.782;2023-08-07T08:52:32;23.27;;;14.95;;
56297;SDS011;42208;6.376;-10.782;2023-08-07T08:55:01;30.30;;;15.50;;
56297;SDS011;42208;6.376;-10.782;2023-08-07T08:57:30;29.30;;;15.35;;
56297;SDS011;42208;6.376;-10.782;2023-08-07T09:00:08;24.13;;;14.45;;
56297;SDS011;42208;6.376;-10.782;2023-08-07T09:02:39;30.30;;;13.23;;
56297;SDS011;42208;6.376;-10.782;2023-08-07T09:05:11;23.02;;;13.05;;
56297;SDS011;42208;6.376;-10.782;2023-08-07T09:07:42;20.98;;;12.95;;
56297;SDS011;42208;6.376;-10.782;2023-08-07T09:10:15;21.50;;;12.50;;
56297;SDS011;42208;6.376;-10.782;2023-08-07T09:12:54;20.23;;;12.93;;
56297;SDS011;42208;6.376;-10.782;2023-08-07T09:15:29;20.90;;;14.32;;
56297;SDS011;42208;6.376;-10.782;2023-08-07T09:17:59;30.10;;;15.10;;
56297;SDS011;42208;6.376;-10.782;2023-08-07T09:20:32;19.73;;;12.32;;
56297;SDS011;42208;6.376;-10.782;2023-08-07T09:23:01;30.20;;;12.20;;
56297;SDS011;42208;6.376;-10.782;2023-08-07T09:25:30;20.58;;;11.05;;
56297;SDS011;42208;6.376;-10.782;2023-08-07T09:28:03;18.10;;;10.45;;
56297;SDS011;42208;6.376;-10.782;2023-08-07T09:30:34;19.00;;;10.82;;
56297;SDS011;42208;6.376;-10.782;2023-08-07T09:33:04;18.05;;;10.40;;
56297;SDS011;42208;6.376;-10.782;2023-08-07T09:35:36;15.00;;;5.97;;
56297;SDS011;42208;6.376;-10.782;2023-08-07T09:38:04;10.02;;;5.40;;
56297;SDS011;42208;6.376;-10.782;2023-08-07T09:40:34;24.75;;;8.80;;
56297;SDS011;42208;6.376;-10.782;2023-08-07T09:43:03;13.20;;;5.82;;
56297;SDS011;42208;6.376;-10.782;2023-08-07T09:45:32;23.65;;;9.98;;
56297;SDS011;42208;6.376;-10.782;2023-08-07T09:48:01;29.92;;;12.23;;
56297;SDS011;42208;6.376;-10.782;2023-08-07T09:50:33;12.45;;;4.45;;
56297;SDS011;42208;6.376;-10.782;2023-08-07T09:53:02;10.98;;;4.50;;
56297;SDS011;42208;6.376;-10.782;2023-08-07T09:55:31;13.82;;;5.43;;
56297;SDS011;42208;6.376;-10.782;2023-08-07T09:58:00;10.05;;;5.85;;
56297;SDS011;42208;6.376;-10.782;2023-08-07T10:00:32;12.75;;;5.28;;
56297;SDS011;42208;6.376;-10.782;2023-08-07T10:03:02;32.50;;;8.90;;
56297;SDS011;42208;6.376;-10.782;2023-08-07T10:05:32;26.95;;;9.70;;
56297;SDS011;42208;6.376;-10.782;2023-08-07T10:08:01;22.40;;;10.50;;
56297;SDS011;42208;6.376;-10.782;2023-08-07T10:10:31;27.27;;;10.45;;
56297;SDS011;42208;6.376;-10.782;2023-08-07T10:13:03;20.67;;;8.23;;
56297;SDS011;42208;6.376;-10.782;2023-08-07T10:15:32;28.00;;;10.98;;
56297;SDS011;42208;6.376;-10.782;2023-08-07T10:18:01;12.90;;;6.47;;
56297;SDS011;42208;6.376;-10.782;2023-08-07T10:20:30;23.63;;;7.70;;
56297;SDS011;42208;6.376;-10.782;2023-08-07T10:23:08;20.08;;;6.43;;
56297;SDS011;42208;6.376;-10.782;2023-08-07T10:25:39;22.27;;;5.75;;
56297;SDS011;42208;6.376;-10.782;2023-08-07T10:28:12;24.52;;;9.05;;
56297;SDS011;42208;6.376;-10.782;2023-08-07T10:30:44;18.75;;;7.75;;
56297;SDS011;42208;6.376;-10.782;2023-08-07T10:33:13;25.10;;;7.38;;
56297;SDS011;42208;6.376;-10.782;2023-08-07T10:35:45;12.27;;;4.50;;
56297;SDS011;42208;6.376;-10.782;2023-08-07T10:38:15;18.35;;;5.07;;
56297;SDS011;42208;6.376;-10.782;2023-08-07T10:41:06;16.50;;;6.97;;
56297;SDS011;42208;6.376;-10.782;2023-08-07T10:43:43;11.68;;;5.13;;
56297;SDS011;42208;6.376;-10.782;2023-08-07T10:46:16;11.18;;;4.47;;
56297;SDS011;42208;6.376;-10.782;2023-08-07T10:48:54;12.18;;;5.00;;
56297;SDS011;42208;6.376;-10.782;2023-08-07T10:51:27;35.70;;;13.85;;
56297;SDS011;42208;6.376;-10.782;2023-08-07T10:53:57;31.45;;;8.93;;
56297;SDS011;42208;6.376;-10.782;2023-08-07T10:59:09;11.65;;;5.28;;
56297;SDS011;42208;6.376;-10.782;2023-08-07T11:04:09;21.30;;;5.95;;
56297;SDS011;42208;6.376;-10.782;2023-08-07T11:06:40;23.33;;;5.60;;
56297;SDS011;42208;6.376;-10.782;2023-08-07T11:09:10;10.00;;;4.72;;
56297;SDS011;42208;6.376;-10.782;2023-08-07T11:11:39;14.57;;;5.63;;
56297;SDS011;42208;6.376;-10.782;2023-08-07T11:14:08;17.38;;;5.00;;
56297;SDS011;42208;6.376;-10.782;2023-08-07T11:16:39;14.20;;;5.85;;
56297;SDS011;42208;6.376;-10.782;2023-08-07T11:19:09;21.80;;;8.35;;
56297;SDS011;42208;6.376;-10.782;2023-08-07T11:21:42;17.65;;;9.88;;
56297;SDS011;42208;6.376;-10.782;2023-08-07T11:24:13;25.25;;;13.30;;
56297;SDS011;42208;6.376;-10.782;2023-08-07T11:26:46;17.65;;;10.63;;
56297;SDS011;42208;6.376;-10.782;2023-08-07T11:29:18;16.73;;;10.82;;
56297;SDS011;42208;6.376;-10.782;2023-08-07T11:31:46;15.98;;;7.72;;
56297;SDS011;42208;6.376;-10.782;2023-08-07T11:34:16;18.17;;;7.03;;
56297;SDS011;42208;6.376;-10.782;2023-08-07T11:36:52;15.05;;;6.70;;
56297;SDS011;42208;6.376;-10.782;2023-08-07T11:39:21;8.25;;;5.18;;
56297;SDS011;42208;6.376;-10.782;2023-08-07T11:41:50;11.70;;;6.30;;
56297;SDS011;42208;6.376;-10.782;2023-08-07T11:44:19;14.35;;;6.07;;
56297;SDS011;42208;6.376;-10.782;2023-08-07T11:46:47;11.93;;;5.50;;
56297;SDS011;42208;6.376;-10.782;2023-08-07T11:49:18;10.93;;;5.32;;
56297;SDS011;42208;6.376;-10.782;2023-08-07T11:51:48;12.77;;;6.05;;
56297;SDS011;42208;6.376;-10.782;2023-08-07T11:54:16;12.75;;;5.60;;
56297;SDS011;42208;6.376;-10.782;2023-08-07T11:56:46;22.88;;;11.68;;
56297;SDS011;42208;6.376;-10.782;2023-08-07T11:59:16;19.83;;;8.68;;
56297;SDS011;42208;6.376;-10.782;2023-08-07T12:01:45;16.30;;;7.45;;
56297;SDS011;42208;6.376;-10.782;2023-08-07T12:04:14;22.55;;;12.02;;
56297;SDS011;42208;6.376;-10.782;2023-08-07T12:06:54;19.13;;;7.78;;
56297;SDS011;42208;6.376;-10.782;2023-08-07T12:09:25;15.90;;;7.20;;
56297;SDS011;42208;6.376;-10.782;2023-08-07T12:11:57;15.82;;;5.22;;
56297;SDS011;42208;6.376;-10.782;2023-08-07T12:14:31;17.20;;;8.20;;
56297;SDS011;42208;6.376;-10.782;2023-08-07T12:17:01;26.75;;;9.93;;
56297;SDS011;42208;6.376;-10.782;2023-08-07T12:19:36;18.77;;;7.85;;
56297;SDS011;42208;6.376;-10.782;2023-08-07T12:22:06;20.90;;;7.50;;
56297;SDS011;42208;6.376;-10.782;2023-08-07T12:24:35;19.25;;;8.70;;
56297;SDS011;42208;6.376;-10.782;2023-08-07T12:27:04;23.45;;;6.90;;
56297;SDS011;42208;6.376;-10.782;2023-08-07T12:29:33;16.58;;;6.25;;
56297;SDS011;42208;6.376;-10.782;2023-08-07T12:32:04;10.90;;;4.75;;
56297;SDS011;42208;6.376;-10.782;2023-08-07T12:34:33;10.65;;;5.10;;
56297;SDS011;42208;6.376;-10.782;2023-08-07T12:37:22;20.13;;;6.57;;
56297;SDS011;42208;6.376;-10.782;2023-08-07T12:39:50;14.82;;;5.93;;
56297;SDS011;42208;6.376;-10.782;2023-08-07T12:42:22;12.35;;;5.13;;
56297;SDS011;42208;6.376;-10.782;2023-08-07T12:44:52;15.57;;;6.47;;
56297;SDS011;42208;6.376;-10.782;2023-08-07T12:47:20;11.02;;;5.20;;
56297;SDS011;42208;6.376;-10.782;2023-08-07T12:49:49;17.02;;;4.93;;
56297;SDS011;42208;6.376;-10.782;2023-08-07T12:52:17;17.65;;;5.20;;
56297;SDS011;42208;6.376;-10.782;2023-08-07T12:54:46;14.75;;;6.40;;
56297;SDS011;42208;6.376;-10.782;2023-08-07T12:57:14;12.18;;;5.60;;
56297;SDS011;42208;6.376;-10.782;2023-08-07T12:59:43;12.05;;;6.18;;
56297;SDS011;42208;6.376;-10.782;2023-08-07T13:02:11;19.25;;;6.78;;
56297;SDS011;42208;6.376;-10.782;2023-08-07T13:04:40;18.70;;;6.45;;
56297;SDS011;42208;6.376;-10.782;2023-08-07T13:07:08;13.27;;;4.97;;
56297;SDS011;42208;6.376;-10.782;2023-08-07T13:09:36;15.25;;;5.20;;
56297;SDS011;42208;6.376;-10.782;2023-08-07T13:12:05;19.20;;;6.15;;
56297;SDS011;42208;6.376;-10.782;2023-08-07T13:14:34;10.40;;;4.30;;
56297;SDS011;42208;6.376;-10.782;2023-08-07T13:17:03;19.52;;;9.05;;
56297;SDS011;42208;6.376;-10.782;2023-08-07T13:19:31;17.52;;;8.07;;
56297;SDS011;42208;6.376;-10.782;2023-08-07T13:22:00;17.10;;;9.57;;
56297;SDS011;42208;6.376;-10.782;2023-08-07T13:24:28;12.18;;;4.95;;
56297;SDS011;42208;6.376;-10.782;2023-08-07T13:26:57;14.50;;;6.97;;
56297;SDS011;42208;6.376;-10.782;2023-08-07T13:29:26;11.48;;;6.28;;
56297;SDS011;42208;6.376;-10.782;2023-08-07T13:31:54;22.15;;;9.30;;
56297;SDS011;42208;6.376;-10.782;2023-08-07T13:34:23;18.42;;;8.52;;
56297;SDS011;42208;6.376;-10.782;2023-08-07T13:36:53;22.02;;;11.27;;
56297;SDS011;42208;6.376;-10.782;2023-08-07T13:39:22;28.30;;;11.48;;
56297;SDS011;42208;6.376;-10.782;2023-08-07T13:41:50;21.00;;;5.78;;
56297;SDS011;42208;6.376;-10.782;2023-08-07T13:44:19;15.30;;;5.55;;
56297;SDS011;42208;6.376;-10.782;2023-08-07T13:46:47;15.93;;;4.45;;
56297;SDS011;42208;6.376;-10.782;2023-08-07T13:49:16;14.15;;;3.72;;
56297;SDS011;42208;6.376;-10.782;2023-08-07T13:51:44;7.70;;;3.40;;
56297;SDS011;42208;6.376;-10.782;2023-08-07T13:54:13;17.20;;;5.97;;
56297;SDS011;42208;6.376;-10.782;2023-08-07T13:56:41;13.05;;;5.35;;
56297;SDS011;42208;6.376;-10.782;2023-08-07T13:59:10;12.85;;;4.95;;
56297;SDS011;42208;6.376;-10.782;2023-08-07T14:01:39;17.50;;;5.88;;
56297;SDS011;42208;6.376;-10.782;2023-08-07T14:04:08;15.32;;;6.80;;
56297;SDS011;42208;6.376;-10.782;2023-08-07T14:06:37;15.50;;;8.02;;
56297;SDS011;42208;6.376;-10.782;2023-08-07T14:09:05;12.40;;;6.13;;
56297;SDS011;42208;6.376;-10.782;2023-08-07T14:11:35;21.95;;;6.18;;
56297;SDS011;42208;6.376;-10.782;2023-08-07T14:14:05;12.95;;;5.25;;
56297;SDS011;42208;6.376;-10.782;2023-08-07T14:16:34;17.30;;;6.25;;
56297;SDS011;42208;6.376;-10.782;2023-08-07T14:19:06;13.32;;;5.45;;
56297;SDS011;42208;6.376;-10.782;2023-08-07T14:21:34;16.13;;;5.95;;
56297;SDS011;42208;6.376;-10.782;2023-08-07T14:24:04;13.27;;;5.95;;
56297;SDS011;42208;6.376;-10.782;2023-08-07T14:26:35;13.38;;;5.25;;
56297;SDS011;42208;6.376;-10.782;2023-08-07T14:29:04;27.08;;;7.45;;
56297;SDS011;42208;6.376;-10.782;2023-08-07T14:31:32;18.08;;;5.55;;
56297;SDS011;42208;6.376;-10.782;2023-08-07T14:34:01;11.32;;;5.30;;
56297;SDS011;42208;6.376;-10.782;2023-08-07T14:36:29;26.25;;;7.80;;
56297;SDS011;42208;6.376;-10.782;2023-08-07T14:38:57;18.77;;;6.97;;
56297;SDS011;42208;6.376;-10.782;2023-08-07T14:41:26;24.33;;;9.30;;
56297;SDS011;42208;6.376;-10.782;2023-08-07T14:43:54;18.10;;;7.38;;
56297;SDS011;42208;6.376;-10.782;2023-08-07T14:46:23;19.25;;;7.68;;
56297;SDS011;42208;6.376;-10.782;2023-08-07T14:48:52;14.27;;;5.80;;
56297;SDS011;42208;6.376;-10.782;2023-08-07T14:51:20;13.95;;;6.05;;